Time;durP1;ratioP1;P1;durP2;ratioP2;P2;SDS_P1;SDS_P2;PMS_P1;PMS_P2;Temp;Humidity;BMP_temperature;BMP_pressure;BME280_temperature;BME280_humidity;BME280_pressure;Samples;Min_cycle;Max_cycle;Signal;HPM_P1;HPM_P2
2022/05/15 00:01:28;;;;;;;7.73;2.93;;;16.10;73.60;;;;;;10333983;28;20225;-71
2022/05/15 00:06:29;;;;;;;8.57;2.93;;;16.00;73.60;;;;;;10353149;28;20722;-73
2022/05/15 00:11:30;;;;;;;6.83;3.47;;;15.80;74.80;;;;;;10366621;28;20271;-72
2022/05/15 00:16:33;;;;;;;7.57;2.97;;;15.80;75.30;;;;;;10356742;28;20716;-73
2022/05/15 00:21:35;;;;;;;6.53;3.20;;;15.80;75.60;;;;;;10348682;28;20225;-72
2022/05/15 00:26:36;;;;;;;5.63;3.07;;;15.70;76.20;;;;;;10349663;28;20222;-72
2022/05/15 00:31:36;;;;;;;8.43;3.27;;;15.60;76.80;;;;;;10329363;28;20217;-73
2022/05/15 00:36:37;;;;;;;5.37;2.90;;;15.60;78.10;;;;;;10344393;28;20250;-73
2022/05/15 00:41:38;;;;;;;7.07;3.43;;;15.40;79.40;;;;;;10350696;28;20221;-72
2022/05/15 00:46:41;;;;;;;5.40;3.00;;;15.20;81.10;;;;;;10350691;28;20300;-72
2022/05/15 00:51:48;;;;;;;7.77;3.10;;;15.00;82.70;;;;;;10349277;28;20312;-72
2022/05/15 00:57:18;;;;;;;7.10;3.10;;;14.90;84.90;;;;;;10340863;28;20213;-73
2022/05/15 01:02:20;;;;;;;11.50;3.57;;;14.90;86.90;;;;;;10354136;28;20796;-72
2022/05/15 01:07:20;;;;;;;7.47;3.40;;;14.80;88.50;;;;;;10335505;28;20225;-72
2022/05/15 01:12:21;;;;;;;4.57;3.47;;;14.80;90.20;;;;;;10356708;28;20656;-73
2022/05/15 01:17:22;;;;;;;8.50;3.80;;;14.80;91.20;;;;;;10361606;28;20282;-72
2022/05/15 01:22:22;;;;;;;4.90;3.00;;;14.80;92.40;;;;;;10361250;28;20221;-72
2022/05/15 01:27:23;;;;;;;5.80;3.80;;;14.80;93.50;;;;;;10358076;28;20232;-72
2022/05/15 01:32:24;;;;;;;7.70;3.30;;;14.90;94.80;;;;;;10359139;28;20221;-72
2022/05/15 01:37:25;;;;;;;7.50;3.50;;;14.80;96.10;;;;;;10359752;28;20760;-72
2022/05/15 01:42:25;;;;;;;8.00;3.60;;;14.80;97.90;;;;;;10343626;28;20234;-74
2022/05/15 01:47:26;;;;;;;6.63;4.17;;;14.70;99.80;;;;;;10362640;28;20232;-74
2022/05/15 01:52:34;;;;;;;6.53;3.63;;;14.70;99.90;;;;;;10362151;28;20218;-74
2022/05/15 01:57:35;;;;;;;6.27;4.37;;;14.70;99.90;;;;;;10353763;28;20221;-74
2022/05/15 02:02:35;;;;;;;4.87;3.10;;;14.60;99.90;;;;;;10361325;28;20228;-73
2022/05/15 02:07:36;;;;;;;8.67;3.80;;;14.40;99.90;;;;;;10367129;28;20217;-73
2022/05/15 02:12:38;;;;;;;7.00;3.87;;;14.40;99.90;;;;;;10343477;28;20221;-73
2022/05/15 02:17:39;;;;;;;8.53;4.13;;;14.40;99.90;;;;;;10358243;28;20219;-74
2022/05/15 02:22:40;;;;;;;8.63;4.07;;;14.40;99.90;;;;;;10343339;28;20316;-74
2022/05/15 02:27:42;;;;;;;11.63;4.70;;;14.30;99.90;;;;;;10352583;28;20873;-74
2022/05/15 02:32:43;;;;;;;8.50;4.43;;;14.30;99.90;;;;;;10366256;28;20217;-74
2022/05/15 02:37:47;;;;;;;6.27;3.97;;;14.20;99.90;;;;;;10369997;28;20225;-73
2022/05/15 02:42:48;;;;;;;8.03;3.87;;;14.10;99.90;;;;;;10364454;28;20221;-73
2022/05/15 02:47:50;;;;;;;9.43;4.43;;;14.10;99.90;;;;;;10356481;28;20240;-73
2022/05/15 02:52:55;;;;;;;8.73;4.17;;;14.00;99.90;;;;;;10364216;28;20284;-73
2022/05/15 02:57:56;;;;;;;9.27;4.20;;;13.90;99.90;;;;;;10365857;28;20805;-73
2022/05/15 03:02:56;;;;;;;6.97;4.10;;;13.80;99.90;;;;;;10364030;28;20314;-73
2022/05/15 03:07:59;;;;;;;8.17;4.53;;;13.80;99.90;;;;;;10351617;28;20560;-73
2022/05/15 03:12:59;;;;;;;9.03;4.90;;;13.70;99.90;;;;;;10361391;28;20221;-73
2022/05/15 03:18:00;;;;;;;10.40;5.90;;;13.70;99.90;;;;;;10363474;28;20290;-73
2022/05/15 03:23:00;;;;;;;9.23;4.90;;;13.70;99.90;;;;;;10352516;28;20271;-73
2022/05/15 03:28:01;;;;;;;7.67;4.50;;;13.60;99.90;;;;;;10354881;28;20257;-73
2022/05/15 03:33:02;;;;;;;7.70;4.80;;;13.50;99.90;;;;;;10367798;28;20221;-73
2022/05/15 03:38:04;;;;;;;10.73;4.90;;;13.50;99.90;;;;;;10354961;28;20245;-73
2022/05/15 03:43:05;;;;;;;10.83;5.30;;;13.40;99.90;;;;;;10343106;28;20607;-73
2022/05/15 03:48:06;;;;;;;8.67;4.87;;;13.40;99.90;;;;;;10351832;28;20228;-73
2022/05/15 03:53:06;;;;;;;8.30;4.80;;;13.30;99.90;;;;;;10365012;28;20275;-72
2022/05/15 03:58:07;;;;;;;9.00;5.00;;;13.20;99.90;;;;;;10343330;28;20248;-73
2022/05/15 04:03:08;;;;;;;10.60;4.97;;;13.20;99.90;;;;;;10352289;28;20217;-74
2022/05/15 04:08:10;;;;;;;6.13;4.40;;;13.20;99.90;;;;;;10348718;28;20229;-74
2022/05/15 04:13:10;;;;;;;7.67;4.40;;;13.20;99.90;;;;;;10345102;28;20303;-73
2022/05/15 04:18:11;;;;;;;6.70;4.00;;;13.30;99.90;;;;;;10354632;28;20213;-74
2022/05/15 04:23:12;;;;;;;14.97;6.00;;;13.40;99.90;;;;;;10347241;28;20238;-73
2022/05/15 04:28:13;;;;;;;9.80;5.03;;;13.40;99.90;;;;;;10359928;28;20716;-72
2022/05/15 04:33:14;;;;;;;8.67;4.60;;;13.50;99.90;;;;;;10356640;28;20280;-72
2022/05/15 04:38:14;;;;;;;6.70;4.50;;;13.70;99.90;;;;;;10363777;28;20716;-72
2022/05/15 04:43:15;;;;;;;6.13;4.20;;;13.70;99.90;;;;;;10343297;28;20224;-74
2022/05/15 04:48:16;;;;;;;10.20;4.70;;;13.90;99.90;;;;;;10344339;28;20220;-72
2022/05/15 04:53:16;;;;;;;8.90;4.47;;;14.10;99.90;;;;;;10358501;28;20304;-72
2022/05/15 04:58:17;;;;;;;6.67;4.40;;;14.20;99.90;;;;;;10352760;28;20330;-72
2022/05/15 05:03:18;;;;;;;7.43;3.83;;;14.60;99.90;;;;;;10349591;28;20782;-72
2022/05/15 05:08:18;;;;;;;6.73;4.20;;;15.10;99.90;;;;;;10348143;28;20716;-72
2022/05/15 05:13:19;;;;;;;9.00;4.00;;;15.30;99.90;;;;;;10361010;28;20340;-72
2022/05/15 05:18:22;;;;;;;6.60;3.40;;;15.70;99.90;;;;;;10342496;28;20259;-73
2022/05/15 05:23:23;;;;;;;11.00;4.17;;;15.80;99.90;;;;;;10368605;28;20270;-73
2022/05/15 05:28:24;;;;;;;9.83;3.53;;;15.70;99.90;;;;;;10362976;28;20701;-73
2022/05/15 05:33:25;;;;;;;8.10;4.13;;;15.80;99.90;;;;;;10364290;28;20704;-73
2022/05/15 05:38:26;;;;;;;10.83;4.53;;;15.80;99.90;;;;;;10363336;28;20217;-73
2022/05/15 05:43:27;;;;;;;7.40;4.10;;;16.50;99.90;;;;;;10366227;28;20221;-73
2022/05/15 05:48:27;;;;;;;10.63;3.93;;;19.30;99.90;;;;;;10349174;28;20222;-72
2022/05/15 05:53:28;;;;;;;8.20;3.80;;;21.20;94.20;;;;;;10349596;28;20218;-73
2022/05/15 05:58:28;;;;;;;8.23;3.70;;;22.60;85.60;;;;;;10351404;28;20603;-73
2022/05/15 06:08:49;;;;;;;7.67;3.30;;;23.80;70.80;;;;;;10362351;28;20224;-74
2022/05/15 06:13:50;;;;;;;6.27;3.10;;;24.30;67.40;;;;;;10360826;28;20229;-72
2022/05/15 06:18:51;;;;;;;8.13;3.50;;;24.70;64.40;;;;;;10364289;28;20593;-72
2022/05/15 06:23:52;;;;;;;8.87;3.37;;;24.30;62.90;;;;;;10354526;28;20252;-73
2022/05/15 06:28:52;;;;;;;10.03;3.30;;;24.20;63.40;;;;;;10350579;28;20266;-72
2022/05/15 06:33:53;;;;;;;10.23;3.60;;;23.90;63.60;;;;;;10350056;28;20255;-73
2022/05/15 06:38:53;;;;;;;7.50;3.37;;;24.90;61.10;;;;;;10363100;28;20279;-73
2022/05/15 06:43:54;;;;;;;5.20;2.57;;;26.10;57.40;;;;;;10347645;28;20716;-72
2022/05/15 06:48:55;;;;;;;7.70;3.33;;;27.10;55.10;;;;;;10349407;28;20248;-74
2022/05/15 06:53:55;;;;;;;5.43;2.60;;;27.70;52.20;;;;;;10340091;28;20217;-73
2022/05/15 06:58:56;;;;;;;7.43;2.87;;;27.20;52.30;;;;;;10369406;28;20233;-73
2022/05/15 07:03:57;;;;;;;6.90;2.70;;;27.50;51.30;;;;;;10356510;28;20248;-73
2022/05/15 07:08:58;;;;;;;6.20;2.83;;;27.90;50.50;;;;;;10360845;28;20229;-73
2022/05/15 07:13:58;;;;;;;6.93;2.87;;;27.90;49.30;;;;;;10365260;28;20247;-72
2022/05/15 07:18:59;;;;;;;6.07;2.57;;;28.10;49.00;;;;;;10357492;28;20743;-74
2022/05/15 07:23:59;;;;;;;5.17;2.80;;;28.90;47.70;;;;;;10343636;28;21960;-73
2022/05/15 07:29:00;;;;;;;5.57;2.43;;;28.50;47.30;;;;;;10368494;28;20248;-71
2022/05/15 07:34:01;;;;;;;7.40;2.70;;;29.00;46.90;;;;;;10341129;28;20231;-70
2022/05/15 07:39:02;;;;;;;5.90;2.73;;;29.60;45.00;;;;;;10363261;28;20295;-72
2022/05/15 07:44:02;;;;;;;6.20;3.00;;;29.90;44.80;;;;;;10360494;28;20228;-72
2022/05/15 07:49:03;;;;;;;4.80;2.63;;;30.70;43.80;;;;;;10365478;28;20264;-73
2022/05/15 07:54:04;;;;;;;9.33;3.30;;;31.50;42.30;;;;;;10352452;28;20228;-72
2022/05/15 07:59:04;;;;;;;7.23;2.73;;;31.20;42.10;;;;;;10363307;28;20269;-71
2022/05/15 08:04:05;;;;;;;5.57;3.03;;;30.20;43.50;;;;;;10361830;28;20738;-73
2022/05/15 08:09:07;;;;;;;4.53;2.80;;;29.70;44.30;;;;;;10362542;28;20640;-71
2022/05/15 08:14:09;;;;;;;5.53;2.50;;;30.10;44.20;;;;;;10360761;28;20224;-71
2022/05/15 08:24:29;;;;;;;11.50;3.07;;;30.90;43.00;;;;;;10357472;28;20213;-73
2022/05/15 08:29:30;;;;;;;3.53;2.70;;;30.90;42.90;;;;;;10338898;28;20304;-73
2022/05/15 08:34:32;;;;;;;5.23;2.60;;;31.50;41.30;;;;;;10359741;28;20228;-74
2022/05/15 08:39:33;;;;;;;7.70;2.60;;;31.80;41.70;;;;;;10351610;28;20225;-73
2022/05/15 08:44:42;;;;;;;4.63;2.40;;;32.80;41.00;;;;;;10366915;28;20222;-73
2022/05/15 08:49:48;;;;;;;6.07;2.57;;;33.50;40.00;;;;;;10362802;28;20213;-73
2022/05/15 08:55:00;;;;;;;5.07;2.60;;;33.10;39.30;;;;;;10356983;28;20769;-71
2022/05/15 09:00:04;;;;;;;8.83;2.70;;;33.30;39.10;;;;;;10346152;28;20221;-71
2022/05/15 09:05:05;;;;;;;6.60;2.77;;;32.40;38.80;;;;;;10361189;28;20229;-71
2022/05/15 09:10:18;;;;;;;4.80;2.50;;;33.20;39.60;;;;;;10357364;28;20205;-72
2022/05/15 09:15:24;;;;;;;5.73;2.23;;;33.60;39.20;;;;;;10342407;28;20210;-71
2022/05/15 09:20:30;;;;;;;7.23;2.60;;;34.10;38.20;;;;;;10351971;28;20288;-70
2022/05/15 09:25:35;;;;;;;5.43;2.07;;;34.50;37.90;;;;;;10355886;28;20218;-70
2022/05/15 09:30:42;;;;;;;5.00;2.17;;;34.10;35.50;;;;;;10363034;28;20232;-70
2022/05/15 09:35:43;;;;;;;5.37;1.90;;;33.90;35.60;;;;;;10357783;28;20221;-70
2022/05/15 09:46:15;;;;;;;4.83;2.20;;;34.00;36.70;;;;;;10344226;28;20221;-71
2022/05/15 09:51:32;;;;;;;5.77;2.10;;;36.80;32.20;;;;;;10355834;28;20217;-70
2022/05/15 09:56:35;;;;;;;4.50;1.83;;;36.30;31.60;;;;;;10356662;28;20224;-70
2022/05/15 10:01:55;;;;;;;4.00;2.00;;;38.20;30.40;;;;;;10353205;28;20237;-70
2022/05/15 10:07:06;;;;;;;4.50;1.97;;;37.00;30.30;;;;;;10357475;28;20283;-71
2022/05/15 10:12:11;;;;;;;5.87;1.83;;;37.00;30.00;;;;;;10360868;28;20707;-70
2022/05/15 10:17:13;;;;;;;7.33;1.97;;;35.40;31.60;;;;;;10356993;28;20225;-71
2022/05/15 10:22:42;;;;;;;5.73;2.03;;;36.90;30.40;;;;;;10364411;28;20229;-71
2022/05/15 10:27:49;;;;;;;5.77;1.70;;;35.80;31.20;;;;;;10317007;28;20701;-71
2022/05/15 10:33:03;;;;;;;6.27;2.10;;;37.30;29.90;;;;;;10357682;28;20225;-70
2022/05/15 10:38:19;;;;;;;6.03;1.57;;;36.40;28.90;;;;;;10359085;28;20398;-71
2022/05/15 10:43:28;;;;;;;8.43;2.30;;;36.20;29.20;;;;;;10353204;28;20224;-71
2022/05/15 10:48:48;;;;;;;5.63;1.87;;;35.50;30.20;;;;;;10362916;28;20271;-70
2022/05/15 10:59:41;;;;;;;4.37;2.00;;;33.90;31.20;;;;;;10358757;28;20685;-72
2022/05/15 11:05:07;;;;;;;7.30;1.97;;;35.80;30.00;;;;;;10358579;28;20218;-70
2022/05/15 11:10:35;;;;;;;5.57;2.00;;;34.90;29.50;;;;;;10366131;28;20245;-70
2022/05/15 11:15:41;;;;;;;5.27;2.23;;;35.40;29.00;;;;;;10357309;28;20226;-71
2022/05/15 11:20:53;;;;;;;4.37;1.80;;;36.30;29.80;;;;;;10354750;28;20225;-71
2022/05/15 11:26:01;;;;;;;5.70;2.20;;;35.10;27.60;;;;;;10358539;28;20578;-72
2022/05/15 11:31:09;;;;;;;5.37;1.97;;;34.60;28.70;;;;;;10362732;28;20263;-71
2022/05/15 11:36:35;;;;;;;6.43;2.33;;;35.10;27.70;;;;;;10361087;28;20275;-72
2022/05/15 11:41:36;;;;;;;5.87;2.00;;;33.10;29.70;;;;;;10359563;28;20223;-71
2022/05/15 11:46:45;;;;;;;6.67;1.97;;;30.90;33.00;;;;;;10354925;28;20346;-70
2022/05/15 11:52:06;;;;;;;4.77;2.13;;;28.70;36.80;;;;;;10359531;28;20224;-70
2022/05/15 11:57:13;;;;;;;6.87;2.10;;;27.80;37.10;;;;;;10349818;28;20282;-71
2022/05/15 12:02:28;;;;;;;3.37;1.80;;;27.60;37.60;;;;;;10344685;28;20236;-71
2022/05/15 12:07:49;;;;;;;3.00;1.70;;;27.30;37.90;;;;;;10363514;28;20220;-71
2022/05/15 12:13:09;;;;;;;5.33;1.80;;;27.30;37.50;;;;;;10355880;28;20248;-70
2022/05/15 12:18:32;;;;;;;4.87;1.90;;;27.00;37.60;;;;;;10363336;28;20231;-71
2022/05/15 12:23:36;;;;;;;3.90;1.43;;;27.20;37.00;;;;;;10362672;28;20235;-70
2022/05/15 12:28:53;;;;;;;5.20;1.70;;;27.20;37.20;;;;;;10354159;28;20711;-71
2022/05/15 12:33:54;;;;;;;4.73;2.07;;;27.40;37.20;;;;;;10334519;28;20219;-71
2022/05/15 12:39:00;;;;;;;3.30;1.40;;;27.20;38.10;;;;;;10359815;28;20228;-70
2022/05/15 12:44:01;;;;;;;3.00;1.70;;;27.30;37.20;;;;;;10348234;28;20231;-71
2022/05/15 12:49:04;;;;;;;7.37;1.77;;;27.60;37.60;;;;;;10357962;28;20221;-71
2022/05/15 12:54:21;;;;;;;5.00;1.60;;;27.30;37.40;;;;;;10358701;28;20223;-71
2022/05/15 12:59:25;;;;;;;2.83;1.70;;;27.30;37.00;;;;;;10330060;28;20287;-71
2022/05/15 13:04:26;;;;;;;6.03;2.00;;;27.30;37.30;;;;;;10359944;28;20213;-71
2022/05/15 13:09:30;;;;;;;5.70;1.90;;;27.40;37.20;;;;;;10356186;28;20317;-71
2022/05/15 13:14:40;;;;;;;4.90;1.57;;;27.20;37.10;;;;;;10353664;28;20789;-70
2022/05/15 13:19:45;;;;;;;4.60;1.90;;;27.10;37.00;;;;;;10329115;28;20235;-70
2022/05/15 13:24:48;;;;;;;4.90;2.03;;;27.20;37.50;;;;;;10346074;28;20751;-70
2022/05/15 13:29:48;;;;;;;4.17;1.97;;;27.30;37.10;;;;;;10343296;28;20270;-71
2022/05/15 13:34:52;;;;;;;7.47;2.20;;;27.00;37.50;;;;;;10361983;28;20231;-70
2022/05/15 13:45:22;;;;;;;8.00;1.90;;;26.90;38.30;;;;;;10361905;28;20221;-71
2022/05/15 13:50:46;;;;;;;4.10;1.70;;;27.20;38.10;;;;;;10337530;28;20291;-70
2022/05/15 13:55:51;;;;;;;2.60;1.50;;;27.70;37.50;;;;;;10364556;28;20239;-70
2022/05/15 14:01:07;;;;;;;4.50;1.60;;;27.90;37.20;;;;;;10367877;28;20604;-71
2022/05/15 14:06:29;;;;;;;5.43;1.90;;;27.80;38.20;;;;;;10354825;28;20231;-71
2022/05/15 14:12:06;;;;;;;9.23;2.27;;;27.30;37.70;;;;;;10347198;28;20227;-71
2022/05/15 14:17:07;;;;;;;3.63;1.70;;;27.40;38.30;;;;;;10259000;28;20244;-71
2022/05/15 14:22:08;;;;;;;2.90;2.13;;;27.50;37.70;;;;;;10360271;28;20237;-71
2022/05/15 14:27:10;;;;;;;6.10;2.27;;;27.70;37.20;;;;;;10366437;28;20224;-71
2022/05/15 14:32:25;;;;;;;3.53;1.90;;;27.70;37.30;;;;;;10362142;28;20224;-71
2022/05/15 14:37:27;;;;;;;6.13;2.17;;;27.50;37.60;;;;;;10352626;28;20308;-72
2022/05/15 14:42:29;;;;;;;4.03;1.73;;;27.10;38.40;;;;;;10350097;28;20232;-72
2022/05/15 14:47:33;;;;;;;7.40;1.87;;;26.60;39.10;;;;;;10366095;28;20224;-72
2022/05/15 14:52:34;;;;;;;3.77;1.90;;;26.60;39.10;;;;;;10358147;28;20248;-72
2022/05/15 14:57:35;;;;;;;6.37;2.17;;;26.80;39.20;;;;;;10369150;28;20866;-72
2022/05/15 15:02:36;;;;;;;4.00;1.97;;;26.70;38.70;;;;;;10366643;28;20220;-73
2022/05/15 15:07:36;;;;;;;3.30;2.00;;;26.80;39.10;;;;;;10369958;28;20229;-73
2022/05/15 15:12:37;;;;;;;4.40;1.90;;;26.70;39.10;;;;;;10369532;28;20220;-73
2022/05/15 15:17:37;;;;;;;6.20;1.73;;;26.80;39.30;;;;;;10354349;28;20323;-72
2022/05/15 15:22:38;;;;;;;5.03;2.13;;;26.80;39.40;;;;;;10354812;28;21020;-72
2022/05/15 15:27:39;;;;;;;3.63;1.90;;;26.80;39.00;;;;;;10340534;28;20211;-72
2022/05/15 15:32:39;;;;;;;5.17;2.10;;;26.70;38.60;;;;;;10343981;28;20220;-71
2022/05/15 15:42:59;;;;;;;7.87;2.17;;;26.40;39.70;;;;;;10367303;28;20228;-71
2022/05/15 15:48:00;;;;;;;2.73;2.10;;;26.30;39.60;;;;;;10350342;28;20217;-72
2022/05/15 15:53:00;;;;;;;5.17;2.00;;;26.40;39.90;;;;;;10359526;28;20216;-71
2022/05/15 15:58:03;;;;;;;6.97;2.47;;;26.60;40.30;;;;;;10350742;28;20241;-72
2022/05/15 16:03:07;;;;;;;6.40;2.03;;;26.80;40.30;;;;;;10358916;28;20220;-72
2022/05/15 16:08:08;;;;;;;6.27;1.97;;;26.80;40.20;;;;;;10336011;28;20235;-72
2022/05/15 16:13:09;;;;;;;4.77;1.97;;;26.50;40.30;;;;;;10362579;28;20228;-71
2022/05/15 16:18:11;;;;;;;3.50;1.87;;;26.40;40.90;;;;;;10358287;28;20926;-72
2022/05/15 16:23:16;;;;;;;9.13;2.27;;;26.40;41.20;;;;;;10360784;28;20323;-72
2022/05/15 16:28:19;;;;;;;5.17;1.93;;;26.10;41.30;;;;;;10359523;28;20731;-73
2022/05/15 16:33:23;;;;;;;5.00;1.90;;;26.00;41.70;;;;;;10356062;28;20871;-72
2022/05/15 16:38:24;;;;;;;5.43;1.80;;;25.90;42.90;;;;;;10355309;28;20225;-72
2022/05/15 16:43:24;;;;;;;4.40;1.90;;;25.90;42.40;;;;;;10338045;28;20276;-73
2022/05/15 16:48:25;;;;;;;4.87;2.17;;;25.80;42.40;;;;;;10353806;28;20735;-71
2022/05/15 16:53:29;;;;;;;3.77;1.80;;;25.70;42.00;;;;;;10357746;28;20371;-74
2022/05/15 16:58:30;;;;;;;4.57;1.90;;;25.60;41.50;;;;;;10364247;28;20294;-73
2022/05/15 17:03:31;;;;;;;3.80;1.80;;;25.40;42.50;;;;;;10365401;28;20278;-72
2022/05/15 17:08:32;;;;;;;3.93;1.73;;;25.40;42.40;;;;;;10341475;28;20698;-71
2022/05/15 17:13:33;;;;;;;4.87;1.90;;;25.40;41.30;;;;;;10362786;28;20793;-71
2022/05/15 17:18:34;;;;;;;5.07;2.20;;;25.30;42.00;;;;;;10358458;28;20276;-72
2022/05/15 17:23:35;;;;;;;4.63;1.80;;;25.20;41.10;;;;;;10344224;28;20325;-73
2022/05/15 17:38:58;;;;;;;5.70;2.20;;;25.00;41.90;;;;;;10364342;28;20850;-71
2022/05/15 17:43:59;;;;;;;5.20;2.20;;;25.00;42.90;;;;;;10370934;28;20305;-71
2022/05/15 17:48:59;;;;;;;5.67;1.90;;;24.90;44.00;;;;;;10353930;28;20217;-71
2022/05/15 17:54:02;;;;;;;6.03;2.03;;;24.80;44.50;;;;;;10347567;28;20217;-71
2022/05/15 17:59:02;;;;;;;4.00;2.07;;;24.80;45.30;;;;;;10363597;28;20307;-71
2022/05/15 18:04:03;;;;;;;4.83;2.07;;;24.70;45.90;;;;;;10363016;28;20300;-71
2022/05/15 18:09:04;;;;;;;4.43;2.50;;;24.60;46.40;;;;;;10364135;28;20217;-70
2022/05/15 18:14:05;;;;;;;7.63;2.33;;;24.50;47.10;;;;;;10351714;28;20708;-70
2022/05/15 18:19:06;;;;;;;4.43;2.20;;;24.40;47.40;;;;;;10365933;28;20315;-71
2022/05/15 18:24:07;;;;;;;5.13;2.40;;;24.30;48.20;;;;;;10367342;28;20237;-72
2022/05/15 18:29:09;;;;;;;4.03;1.93;;;24.20;49.10;;;;;;10367258;28;20249;-70
2022/05/15 18:34:12;;;;;;;4.60;2.30;;;24.00;49.60;;;;;;10360009;28;20221;-71
2022/05/15 18:39:13;;;;;;;5.27;2.20;;;23.90;50.30;;;;;;10360179;28;20225;-71
2022/05/15 18:44:19;;;;;;;5.57;2.60;;;23.70;50.90;;;;;;10349594;28;20216;-71
2022/05/15 18:49:20;;;;;;;8.43;2.33;;;23.60;51.60;;;;;;10363645;28;20316;-70
2022/05/15 18:59:41;;;;;;;5.90;2.50;;;23.30;52.70;;;;;;10357697;28;20704;-71
2022/05/15 19:04:41;;;;;;;10.27;2.40;;;23.20;53.40;;;;;;10364807;28;20759;-71
2022/05/15 19:09:42;;;;;;;5.70;2.57;;;23.00;53.80;;;;;;10357057;28;20287;-70
2022/05/15 19:14:42;;;;;;;6.03;3.00;;;22.90;54.20;;;;;;10338278;28;20692;-70
2022/05/15 19:19:43;;;;;;;5.87;2.60;;;22.80;54.80;;;;;;10351128;28;20723;-71
2022/05/15 19:24:44;;;;;;;6.03;2.33;;;22.60;55.30;;;;;;10359869;28;20304;-70
2022/05/15 19:29:44;;;;;;;5.57;2.50;;;22.50;56.80;;;;;;10359278;28;20221;-70
2022/05/15 19:34:45;;;;;;;4.87;1.93;;;22.40;56.30;;;;;;10363457;28;20213;-70
2022/05/15 19:39:46;;;;;;;4.17;2.23;;;22.30;56.70;;;;;;10361457;28;20714;-70
2022/05/15 19:44:47;;;;;;;4.53;2.50;;;22.10;56.90;;;;;;10355350;28;20218;-71
2022/05/15 19:49:48;;;;;;;4.33;2.53;;;22.00;57.40;;;;;;10360772;28;20221;-70
2022/05/15 19:54:49;;;;;;;6.73;2.53;;;21.90;57.70;;;;;;10359474;28;20259;-70
2022/05/15 19:59:50;;;;;;;4.03;2.40;;;21.80;57.90;;;;;;10358329;28;20252;-70
2022/05/15 20:15:23;;;;;;;5.60;2.30;;;21.50;58.90;;;;;;10359058;28;20292;-70
2022/05/15 20:20:24;;;;;;;4.87;2.37;;;21.40;59.20;;;;;;10336125;28;20210;-71
2022/05/15 20:25:25;;;;;;;6.73;2.87;;;21.20;59.50;;;;;;10358042;28;20232;-71
2022/05/15 20:30:26;;;;;;;5.47;2.40;;;21.20;59.60;;;;;;10337276;28;20224;-71
2022/05/15 20:35:26;;;;;;;9.50;2.40;;;21.10;59.40;;;;;;10355743;28;20217;-71
2022/05/15 20:40:28;;;;;;;5.27;2.17;;;21.20;59.60;;;;;;10360103;28;20266;-70
2022/05/15 20:45:29;;;;;;;3.63;2.50;;;21.10;59.50;;;;;;10365124;28;20220;-73
2022/05/15 20:50:29;;;;;;;5.37;2.40;;;21.00;59.50;;;;;;10331644;28;20224;-73
2022/05/15 20:55:30;;;;;;;5.53;1.90;;;21.00;59.70;;;;;;10354205;28;20261;-71
2022/05/15 21:00:31;;;;;;;6.10;2.23;;;20.90;59.90;;;;;;10354305;28;20257;-72
2022/05/15 21:05:32;;;;;;;6.33;2.40;;;20.90;60.00;;;;;;10367870;28;20244;-72
2022/05/15 21:10:33;;;;;;;5.50;2.30;;;20.80;60.40;;;;;;10349252;28;20227;-72
2022/05/15 21:15:34;;;;;;;5.33;2.50;;;20.60;60.90;;;;;;10332133;28;20313;-71
2022/05/15 21:20:35;;;;;;;4.83;2.17;;;20.50;61.30;;;;;;10353940;28;20247;-72
2022/05/15 21:25:35;;;;;;;4.07;2.30;;;20.50;61.60;;;;;;10330801;28;20217;-73
2022/05/15 21:30:36;;;;;;;4.30;2.37;;;20.40;61.70;;;;;;10354827;28;20216;-73
2022/05/15 21:35:38;;;;;;;5.77;2.20;;;20.40;61.80;;;;;;10348984;28;20240;-73
2022/05/15 21:45:58;;;;;;;4.70;2.67;;;20.30;61.70;;;;;;10351062;28;20241;-73
2022/05/15 21:50:58;;;;;;;7.23;2.50;;;20.30;61.90;;;;;;10355556;28;20219;-73
2022/05/15 21:55:59;;;;;;;5.83;2.67;;;20.30;61.60;;;;;;10352300;28;20309;-72
2022/05/15 22:01:02;;;;;;;5.27;2.43;;;20.30;61.40;;;;;;10366303;28;20751;-72
2022/05/15 22:06:15;;;;;;;6.57;2.63;;;20.30;61.30;;;;;;10358672;28;20217;-72
2022/05/15 22:11:16;;;;;;;7.83;2.97;;;20.30;61.40;;;;;;10358027;28;20308;-73
2022/05/15 22:16:17;;;;;;;11.80;2.90;;;20.20;61.30;;;;;;10355522;28;20300;-72
2022/05/15 22:21:17;;;;;;;5.90;2.93;;;20.20;61.30;;;;;;10341184;28;20225;-71
2022/05/15 22:26:25;;;;;;;5.17;2.30;;;20.20;61.30;;;;;;10346189;28;20217;-72
2022/05/15 22:31:25;;;;;;;6.37;2.20;;;20.20;61.20;;;;;;10359647;28;20625;-72
2022/05/15 22:36:26;;;;;;;6.80;2.27;;;20.20;61.20;;;;;;10355209;28;20220;-72
2022/05/15 22:41:26;;;;;;;6.03;2.47;;;20.10;61.30;;;;;;10359230;28;20626;-71
2022/05/15 22:46:27;;;;;;;5.40;2.47;;;20.10;61.50;;;;;;10349306;28;20244;-71
2022/05/15 22:51:30;;;;;;;4.90;2.37;;;20.00;61.80;;;;;;10351418;28;20221;-70
2022/05/15 22:56:31;;;;;;;3.57;2.50;;;19.90;62.30;;;;;;10364555;28;20221;-72
2022/05/15 23:01:32;;;;;;;3.77;2.20;;;19.70;64.60;;;;;;10358778;28;20225;-71
2022/05/15 23:11:52;;;;;;;2.80;2.00;;;19.20;66.80;;;;;;10360518;28;20228;-72
2022/05/15 23:16:52;;;;;;;2.70;2.00;;;19.00;68.00;;;;;;10356223;28;20665;-72
2022/05/15 23:21:53;;;;;;;5.23;2.50;;;18.90;69.50;;;;;;10355803;28;20718;-72
2022/05/15 23:26:54;;;;;;;7.13;2.60;;;18.80;69.40;;;;;;10338535;28;20224;-72
2022/05/15 23:31:54;;;;;;;5.40;2.77;;;18.80;69.60;;;;;;10335874;28;20224;-73
2022/05/15 23:36:55;;;;;;;6.03;2.70;;;18.80;70.40;;;;;;10348854;28;20217;-72
2022/05/15 23:41:55;;;;;;;6.23;2.50;;;18.80;69.70;;;;;;10357749;28;20228;-72
2022/05/15 23:47:00;;;;;;;5.30;2.40;;;18.80;69.90;;;;;;10354896;28;20594;-71
2022/05/15 23:52:01;;;;;;;7.23;2.93;;;18.60;70.30;;;;;;10340329;28;20220;-72
2022/05/15 23:57:06;;;;;;;7.23;2.60;;;18.60;70.90;;;;;;10361229;28;20598;-74
